createdAt,value
2019-01-30T00:01:24.570Z,2.23
2019-01-30T00:04:32.250Z,2.53
2019-01-30T00:07:39.682Z,2.47
2019-01-30T00:10:47.528Z,2.63
2019-01-30T00:13:55.656Z,3.17
2019-01-30T00:17:03.638Z,3.03
2019-01-30T00:20:11.399Z,2.93
2019-01-30T00:23:18.791Z,3.97
2019-01-30T00:26:26.286Z,2.87
2019-01-30T00:29:34.062Z,3.43
2019-01-30T00:32:41.498Z,2.77
2019-01-30T00:35:49.790Z,2.60
2019-01-30T00:38:57.182Z,3.57
2019-01-30T00:42:04.966Z,2.90
2019-01-30T00:45:12.950Z,2.50
2019-01-30T00:48:20.527Z,3.00
2019-01-30T00:51:28.288Z,3.20
2019-01-30T00:54:36.589Z,3.00
2019-01-30T00:57:44.800Z,3.00
2019-01-30T01:00:52.306Z,2.60
2019-01-30T01:03:59.733Z,2.93
2019-01-30T01:07:07.395Z,2.43
2019-01-30T01:10:15.933Z,2.27
2019-01-30T01:13:23.318Z,3.23
2019-01-30T01:16:30.722Z,2.10
2019-01-30T01:19:38.002Z,2.27
2019-01-30T01:22:45.666Z,2.13
2019-01-30T01:25:53.501Z,2.17
2019-01-30T01:29:01.310Z,2.47
2019-01-30T01:32:09.312Z,2.30
2019-01-30T01:35:17.110Z,2.20
2019-01-30T01:38:24.626Z,2.13
2019-01-30T01:41:32.120Z,2.13
2019-01-30T01:44:39.911Z,1.57
2019-01-30T01:47:48.116Z,1.93
2019-01-30T01:50:56.006Z,1.60
2019-01-30T01:54:03.668Z,1.93
2019-01-30T01:57:11.234Z,1.90
2019-01-30T02:00:20.336Z,1.47
2019-01-30T02:03:27.723Z,1.70
2019-01-30T02:06:35.454Z,1.60
2019-01-30T02:09:42.967Z,2.00
2019-01-30T02:12:50.779Z,1.60
2019-01-30T02:15:58.159Z,1.43
2019-01-30T02:19:05.555Z,1.40
2019-01-30T02:22:13.408Z,1.40
2019-01-30T02:25:20.797Z,1.90
2019-01-30T02:28:28.302Z,2.03
2019-01-30T02:31:35.973Z,2.20
2019-01-30T02:34:43.241Z,1.97
2019-01-30T02:37:50.716Z,1.80
2019-01-30T02:40:58.206Z,2.30
2019-01-30T02:44:05.602Z,1.70
2019-01-30T02:47:13.459Z,1.80
2019-01-30T02:50:21.851Z,1.23
2019-01-30T02:53:29.486Z,1.43
2019-01-30T02:56:37.027Z,1.63
2019-01-30T02:59:44.623Z,1.60
2019-01-30T03:02:52.759Z,1.50
2019-01-30T03:06:00.137Z,1.63
2019-01-30T03:09:07.737Z,1.30
2019-01-30T03:12:15.463Z,1.17
2019-01-30T03:15:23.157Z,1.53
2019-01-30T03:18:30.665Z,1.60
2019-01-30T03:21:38.039Z,1.50
2019-01-30T03:24:45.318Z,1.83
2019-01-30T03:27:53.282Z,2.67
2019-01-30T03:31:15.668Z,1.40
2019-01-30T03:34:10.148Z,1.43
2019-01-30T03:37:17.429Z,1.73
2019-01-30T03:40:25.168Z,1.27
2019-01-30T03:43:32.430Z,1.90
2019-01-30T03:46:39.827Z,1.83
2019-01-30T03:49:47.111Z,1.90
2019-01-30T03:52:54.388Z,1.47
2019-01-30T03:56:01.777Z,1.70
2019-01-30T03:59:09.603Z,1.60
2019-01-30T04:02:17.214Z,1.57
2019-01-30T04:05:24.689Z,1.60
2019-01-30T04:08:31.971Z,1.77
2019-01-30T04:11:39.148Z,1.67
2019-01-30T04:14:46.786Z,1.20
2019-01-30T04:17:54.159Z,1.50
2019-01-30T04:21:01.775Z,1.33
2019-01-30T04:24:09.370Z,1.33
2019-01-30T04:27:16.554Z,1.40
2019-01-30T04:30:24.399Z,1.43
2019-01-30T04:33:31.803Z,1.77
2019-01-30T04:36:39.367Z,1.60
2019-01-30T04:39:46.635Z,1.60
2019-01-30T04:42:54.152Z,1.70
2019-01-30T04:46:01.648Z,1.70
2019-01-30T04:49:09.274Z,1.20
2019-01-30T04:52:16.662Z,2.07
2019-01-30T04:55:24.136Z,1.60
2019-01-30T04:58:31.308Z,1.70
2019-01-30T05:01:49.275Z,1.40
2019-01-30T05:04:48.355Z,1.50
2019-01-30T05:07:56.159Z,1.20
2019-01-30T05:11:04.056Z,1.87
2019-01-30T05:14:11.325Z,1.60
2019-01-30T05:17:18.825Z,2.27
2019-01-30T05:20:26.164Z,2.07
2019-01-30T05:23:33.553Z,1.40
2019-01-30T05:26:40.729Z,1.87
2019-01-30T05:29:47.999Z,2.00
2019-01-30T05:32:58.464Z,2.77
2019-01-30T05:36:06.215Z,2.80
2019-01-30T05:39:13.774Z,2.30
2019-01-30T05:42:21.301Z,2.40
2019-01-30T05:45:28.766Z,2.47
2019-01-30T05:48:36.267Z,1.70
2019-01-30T05:51:43.670Z,1.57
2019-01-30T05:54:51.785Z,1.90
2019-01-30T05:57:59.351Z,1.80
2019-01-30T06:01:06.873Z,2.20
2019-01-30T06:04:14.350Z,2.43
2019-01-30T06:07:21.982Z,1.83
2019-01-30T06:10:29.464Z,2.63
2019-01-30T06:13:37.071Z,2.47
2019-01-30T06:16:44.382Z,2.30
2019-01-30T06:19:51.942Z,2.20
2019-01-30T06:23:01.609Z,4.70
2019-01-30T06:26:08.658Z,1.83
2019-01-30T06:29:16.269Z,1.73
2019-01-30T06:32:23.766Z,2.53
2019-01-30T06:35:31.250Z,2.00
2019-01-30T06:38:38.962Z,2.13
2019-01-30T06:41:46.373Z,2.50
2019-01-30T06:44:53.564Z,2.53
2019-01-30T06:48:01.063Z,2.47
2019-01-30T06:51:08.535Z,2.57
2019-01-30T06:54:15.812Z,3.10
2019-01-30T06:57:23.208Z,3.13
2019-01-30T07:00:30.701Z,2.70
2019-01-30T07:03:37.966Z,2.20
2019-01-30T07:06:45.351Z,2.10
2019-01-30T07:09:53.101Z,1.87
2019-01-30T07:13:00.593Z,1.73
2019-01-30T07:16:08.081Z,1.67
2019-01-30T07:19:15.492Z,2.37
2019-01-30T07:22:22.971Z,2.33
2019-01-30T07:25:30.701Z,2.13
2019-01-30T07:28:37.982Z,1.40
2019-01-30T07:31:45.485Z,2.70
2019-01-30T07:34:53.172Z,2.17
2019-01-30T07:38:00.789Z,2.50
2019-01-30T07:41:08.068Z,1.50
2019-01-30T07:44:15.737Z,2.37
2019-01-30T07:47:23.012Z,2.33
2019-01-30T07:50:30.859Z,4.00
2019-01-30T07:53:38.560Z,5.33
2019-01-30T07:56:45.952Z,2.33
2019-01-30T07:59:53.141Z,1.80
2019-01-30T08:03:01.166Z,2.00
2019-01-30T08:06:08.662Z,1.90
2019-01-30T08:09:16.058Z,1.83
2019-01-30T08:12:23.855Z,1.90
2019-01-30T08:15:31.758Z,2.20
2019-01-30T08:18:39.572Z,1.90
2019-01-30T08:21:47.105Z,2.07
2019-01-30T08:24:54.662Z,1.87
2019-01-30T08:28:02.832Z,1.93
2019-01-30T08:31:11.140Z,2.07
2019-01-30T08:34:19.182Z,2.40
2019-01-30T08:37:26.567Z,2.77
2019-01-30T08:40:34.288Z,3.07
2019-01-30T08:43:41.948Z,2.33
2019-01-30T08:46:49.476Z,2.40
2019-01-30T08:49:56.999Z,2.07
2019-01-30T08:53:04.474Z,2.73
2019-01-30T08:56:11.820Z,2.47
2019-01-30T08:59:19.062Z,2.10
2019-01-30T09:02:27.017Z,2.77
2019-01-30T09:05:34.316Z,2.73
2019-01-30T09:08:41.972Z,2.50
2019-01-30T09:11:50.056Z,2.00
2019-01-30T09:14:57.713Z,3.20
2019-01-30T09:18:06.087Z,3.27
2019-01-30T09:21:13.578Z,2.17
2019-01-30T09:24:20.766Z,2.23
2019-01-30T09:27:28.566Z,2.00
2019-01-30T09:30:37.927Z,2.50
2019-01-30T09:33:45.357Z,2.87
2019-01-30T09:36:53.585Z,2.30
2019-01-30T09:40:01.220Z,2.70
2019-01-30T09:43:08.508Z,2.57
2019-01-30T09:46:16.034Z,2.03
2019-01-30T09:49:23.360Z,1.77
2019-01-30T09:52:30.554Z,1.83
2019-01-30T09:55:38.063Z,2.33
2019-01-30T09:58:45.323Z,2.27
2019-01-30T10:01:53.170Z,2.83
2019-01-30T10:05:00.393Z,2.60
2019-01-30T10:08:08.505Z,2.07
2019-01-30T10:11:15.797Z,1.83
2019-01-30T10:14:23.874Z,2.30
2019-01-30T10:17:31.264Z,2.07
2019-01-30T10:20:39.895Z,1.70
2019-01-30T10:23:47.386Z,2.23
2019-01-30T10:26:54.697Z,1.83
2019-01-30T10:30:02.402Z,1.50
2019-01-30T10:33:09.796Z,1.77
2019-01-30T10:36:17.473Z,1.53
2019-01-30T10:39:24.874Z,1.40
2019-01-30T10:42:32.674Z,1.37
2019-01-30T10:45:40.468Z,2.27
2019-01-30T10:48:47.973Z,1.53
2019-01-30T10:51:55.737Z,1.87
2019-01-30T10:55:04.919Z,1.63
2019-01-30T10:58:15.685Z,1.50
2019-01-30T11:01:23.214Z,1.93
2019-01-30T11:04:30.840Z,2.23
2019-01-30T11:07:38.315Z,1.50
2019-01-30T11:10:45.917Z,2.10
2019-01-30T11:13:53.521Z,1.60
2019-01-30T11:17:01.066Z,1.30
2019-01-30T11:20:10.861Z,1.33
2019-01-30T11:23:18.392Z,1.40
2019-01-30T11:26:25.888Z,2.00
2019-01-30T11:29:33.617Z,1.30
2019-01-30T11:32:41.212Z,1.80
2019-01-30T11:35:48.684Z,1.37
2019-01-30T11:38:56.066Z,1.63
2019-01-30T11:42:03.756Z,2.00
2019-01-30T11:45:18.619Z,3.73
2019-01-30T11:48:26.510Z,2.37
2019-01-30T11:51:34.681Z,2.40
2019-01-30T11:54:42.426Z,1.57
2019-01-30T11:57:49.788Z,2.60
2019-01-30T12:00:59.624Z,1.97
2019-01-30T12:04:17.457Z,2.63
2019-01-30T12:07:16.384Z,1.70
2019-01-30T12:10:24.264Z,2.30
2019-01-30T12:13:31.677Z,1.90
2019-01-30T12:16:39.505Z,2.47
2019-01-30T12:19:47.160Z,2.27
2019-01-30T12:22:55.004Z,2.20
2019-01-30T12:26:02.728Z,2.00
2019-01-30T12:29:10.369Z,2.30
2019-01-30T12:32:18.006Z,2.60
2019-01-30T12:35:26.180Z,1.97
2019-01-30T12:38:33.984Z,1.50
2019-01-30T12:41:41.684Z,1.17
2019-01-30T12:44:49.000Z,1.60
2019-01-30T12:47:56.597Z,2.93
2019-01-30T12:51:04.056Z,1.03
2019-01-30T12:54:11.855Z,3.00
2019-01-30T12:57:19.703Z,2.77
2019-01-30T13:00:36.498Z,4.07
2019-01-30T13:03:44.012Z,3.50
2019-01-30T13:06:52.099Z,1.90
2019-01-30T13:09:59.495Z,1.17
2019-01-30T13:13:06.966Z,2.03
2019-01-30T13:16:14.543Z,1.50
2019-01-30T13:19:22.356Z,1.43
2019-01-30T13:22:29.628Z,1.73
2019-01-30T13:25:37.380Z,1.17
2019-01-30T13:28:45.490Z,1.73
2019-01-30T13:31:53.319Z,1.77
2019-01-30T13:35:00.606Z,1.57
2019-01-30T13:38:08.182Z,1.47
2019-01-30T13:41:15.680Z,1.80
2019-01-30T13:44:23.280Z,1.20
2019-01-30T13:47:32.777Z,1.20
2019-01-30T13:50:40.585Z,1.37
2019-01-30T13:53:48.417Z,1.23
2019-01-30T13:56:55.990Z,1.50
2019-01-30T14:00:08.211Z,1.30
2019-01-30T14:03:16.112Z,1.20
2019-01-30T14:06:23.544Z,1.03
2019-01-30T14:09:31.237Z,0.97
2019-01-30T14:12:38.656Z,1.20
2019-01-30T14:15:46.472Z,1.27
2019-01-30T14:18:53.790Z,1.20
2019-01-30T14:22:01.534Z,0.97
2019-01-30T14:25:10.732Z,0.77
2019-01-30T14:28:18.255Z,0.90
2019-01-30T14:31:25.688Z,1.70
2019-01-30T14:34:32.982Z,1.83
2019-01-30T14:37:40.527Z,1.43
2019-01-30T14:40:48.098Z,1.20
2019-01-30T14:43:55.622Z,1.00
2019-01-30T14:47:03.429Z,0.80
2019-01-30T14:50:15.531Z,0.43
2019-01-30T14:53:24.477Z,1.00
2019-01-30T14:56:32.113Z,0.50
2019-01-30T14:59:39.675Z,0.70
2019-01-30T15:02:47.677Z,0.33
2019-01-30T15:05:54.898Z,0.83
2019-01-30T15:09:06.781Z,0.10
2019-01-30T15:12:14.587Z,0.10
2019-01-30T15:15:24.946Z,0.30
2019-01-30T15:18:32.350Z,0.10
2019-01-30T15:21:39.908Z,0.10
2019-01-30T15:24:47.461Z,0.20
2019-01-30T15:27:55.889Z,1.37
2019-01-30T15:31:03.564Z,1.20
2019-01-30T15:34:11.817Z,1.80
2019-01-30T15:37:19.502Z,3.20
2019-01-30T15:40:27.925Z,3.20
2019-01-30T15:43:35.585Z,1.83
2019-01-30T15:46:43.346Z,1.27
2019-01-30T15:49:51.293Z,2.50
2019-01-30T15:53:00.545Z,2.80
2019-01-30T15:56:08.208Z,5.00
2019-01-30T15:59:16.126Z,2.40
2019-01-30T16:02:24.347Z,1.17
2019-01-30T16:05:44.191Z,1.27
2019-01-30T16:08:43.561Z,1.83
2019-01-30T16:11:51.192Z,2.77
2019-01-30T16:14:59.341Z,4.70
2019-01-30T16:18:08.156Z,7.87
2019-01-30T16:21:15.842Z,2.70
2019-01-30T16:24:23.855Z,1.20
2019-01-30T16:27:32.044Z,0.60
2019-01-30T16:30:42.221Z,0.73
2019-01-30T16:33:49.411Z,0.90
2019-01-30T16:36:57.652Z,0.80
2019-01-30T16:40:07.237Z,0.40
2019-01-30T16:43:14.888Z,0.20
2019-01-30T16:46:22.835Z,0.30
2019-01-30T16:49:31.373Z,1.27
2019-01-30T16:52:39.976Z,0.20
2019-01-30T16:55:47.650Z,0.23
2019-01-30T16:58:55.417Z,2.10
2019-01-30T17:02:03.306Z,0.20
2019-01-30T17:05:14.345Z,0.50
2019-01-30T17:08:22.106Z,0.30
2019-01-30T17:11:30.092Z,0.40
2019-01-30T17:14:38.086Z,0.50
2019-01-30T17:17:46.098Z,0.60
2019-01-30T17:21:06.418Z,0.40
2019-01-30T17:24:14.531Z,4.23
2019-01-30T17:27:22.970Z,0.60
2019-01-30T17:31:07.980Z,0.67
2019-01-30T17:34:16.129Z,0.30
2019-01-30T17:37:23.775Z,0.63
2019-01-30T17:40:32.197Z,0.60
2019-01-30T17:43:40.516Z,0.40
2019-01-30T17:46:48.079Z,0.67
2019-01-30T17:49:55.683Z,0.60
2019-01-30T17:53:04.115Z,1.00
2019-01-30T17:56:12.665Z,1.33
2019-01-30T17:59:20.264Z,0.83
2019-01-30T18:02:28.309Z,1.50
2019-01-30T18:05:35.873Z,1.17
2019-01-30T18:08:44.707Z,0.37
2019-01-30T18:11:52.998Z,1.30
2019-01-30T18:15:00.888Z,0.47
2019-01-30T18:18:08.832Z,1.30
2019-01-30T18:21:17.423Z,1.40
2019-01-30T18:24:28.182Z,1.20
2019-01-30T18:27:38.749Z,0.90
2019-01-30T18:30:48.853Z,1.03
2019-01-30T18:34:00.341Z,1.67
2019-01-30T18:37:11.318Z,1.00
2019-01-30T18:40:23.782Z,1.60
2019-01-30T18:43:34.194Z,1.70
2019-01-30T18:46:43.609Z,1.70
2019-01-30T18:49:52.964Z,1.33
2019-01-30T18:53:02.223Z,1.60
2019-01-30T18:56:12.805Z,1.60
2019-01-30T18:59:21.852Z,1.30
2019-01-30T19:02:31.449Z,1.30
2019-01-30T19:05:40.573Z,1.23
2019-01-30T19:08:51.058Z,1.40
2019-01-30T19:12:02.047Z,1.43
2019-01-30T19:15:16.747Z,1.00
2019-01-30T19:18:26.966Z,0.70
2019-01-30T19:21:37.798Z,0.70
2019-01-30T19:24:48.957Z,0.93
2019-01-30T19:28:01.317Z,0.83
2019-01-30T19:31:12.629Z,0.67
2019-01-30T19:34:23.870Z,0.93
2019-01-30T19:37:35.154Z,0.50
2019-01-30T19:40:45.874Z,0.33
2019-01-30T19:43:57.665Z,0.47
2019-01-30T19:47:08.519Z,0.40
2019-01-30T19:50:23.750Z,0.40
2019-01-30T19:53:34.687Z,0.40
2019-01-30T19:56:45.298Z,0.70
2019-01-30T19:59:56.537Z,0.50
2019-01-30T20:03:10.601Z,1.00
2019-01-30T20:06:21.916Z,0.53
2019-01-30T20:09:33.387Z,0.50
2019-01-30T20:12:43.712Z,0.73
2019-01-30T20:15:56.201Z,0.90
2019-01-30T20:19:06.729Z,0.73
2019-01-30T20:22:17.307Z,1.13
2019-01-30T20:25:31.419Z,1.00
2019-01-30T20:28:43.009Z,0.60
2019-01-30T20:31:55.214Z,0.83
2019-01-30T20:35:07.297Z,0.63
2019-01-30T20:38:18.606Z,0.60
2019-01-30T20:41:29.793Z,0.73
2019-01-30T20:44:40.221Z,0.87
2019-01-30T20:47:49.300Z,0.77
2019-01-30T20:50:59.830Z,0.80
2019-01-30T20:54:09.645Z,0.80
2019-01-30T20:57:21.447Z,1.00
2019-01-30T21:00:36.532Z,0.77
2019-01-30T21:03:45.488Z,0.70
2019-01-30T21:06:55.961Z,0.47
2019-01-30T21:10:08.719Z,0.70
2019-01-30T21:13:19.161Z,0.80
2019-01-30T21:16:31.070Z,0.80
2019-01-30T21:19:41.864Z,1.10
2019-01-30T21:22:53.088Z,1.40
2019-01-30T21:26:03.587Z,1.73
2019-01-30T21:29:15.664Z,1.57
2019-01-30T21:32:25.201Z,1.40
2019-01-30T21:35:35.639Z,1.20
2019-01-30T21:38:46.611Z,1.10
2019-01-30T21:41:56.150Z,1.10
2019-01-30T21:45:07.148Z,1.10
2019-01-30T21:48:15.594Z,1.10
2019-01-30T21:51:23.007Z,0.97
2019-01-30T21:54:31.862Z,1.13
2019-01-30T21:57:39.808Z,0.73
2019-01-30T22:00:47.266Z,0.90
2019-01-30T22:03:54.923Z,0.90
2019-01-30T22:07:03.336Z,0.70
2019-01-30T22:10:15.218Z,1.43
2019-01-30T22:13:23.139Z,1.93
2019-01-30T22:16:31.009Z,2.03
2019-01-30T22:19:38.534Z,5.40
2019-01-30T22:22:46.334Z,4.47
2019-01-30T22:25:53.751Z,4.07
2019-01-30T22:29:02.722Z,2.90
2019-01-30T22:32:10.243Z,3.00
2019-01-30T22:35:17.734Z,1.17
2019-01-30T22:38:24.991Z,0.60
2019-01-30T22:41:32.202Z,0.50
2019-01-30T22:44:39.984Z,0.60
2019-01-30T22:47:47.755Z,0.40
2019-01-30T22:50:55.268Z,0.70
2019-01-30T22:54:03.630Z,0.90
2019-01-30T22:57:11.473Z,0.70
2019-01-30T23:00:57.563Z,0.80
2019-01-30T23:05:09.890Z,0.60
2019-01-30T23:08:37.335Z,1.10
2019-01-30T23:13:02.643Z,2.23
2019-01-30T23:17:08.103Z,1.07
2019-01-30T23:20:34.810Z,0.90
2019-01-30T23:24:25.639Z,1.17
2019-01-30T23:27:57.744Z,1.00
2019-01-30T23:32:27.089Z,1.90
2019-01-30T23:36:39.169Z,1.93
2019-01-30T23:41:03.220Z,0.83
2019-01-30T23:44:39.425Z,0.97
2019-01-30T23:48:39.023Z,2.47
2019-01-30T23:52:32.916Z,1.33
2019-01-30T23:56:30.294Z,0.70
2019-01-30T23:59:51.967Z,0.70
